createdAt,value
2022-08-24T00:01:55.643Z,6.20
2022-08-24T00:04:00.086Z,6.40
2022-08-24T00:06:03.820Z,6.83
2022-08-24T00:08:06.571Z,6.70
2022-08-24T00:10:11.906Z,6.67
2022-08-24T00:12:15.803Z,6.50
2022-08-24T00:14:19.037Z,6.00
2022-08-24T00:16:22.201Z,6.50
2022-08-24T00:18:25.037Z,6.10
2022-08-24T00:20:29.239Z,6.30
2022-08-24T00:22:32.597Z,5.90
2022-08-24T00:24:35.263Z,6.27
2022-08-24T00:26:38.660Z,6.13
2022-08-24T00:28:41.373Z,6.50
2022-08-24T00:30:44.385Z,6.07
2022-08-24T00:32:48.608Z,6.20
2022-08-24T00:34:58.258Z,6.60
2022-08-24T00:37:03.254Z,6.10
2022-08-24T00:39:06.349Z,6.10
2022-08-24T00:41:09.027Z,6.27
2022-08-24T00:43:12.227Z,6.20
2022-08-24T00:45:17.249Z,6.10
2022-08-24T00:47:23.205Z,5.70
2022-08-24T00:49:31.275Z,5.97
2022-08-24T00:51:38.595Z,6.50
2022-08-24T00:53:46.939Z,5.80
2022-08-24T00:55:52.985Z,5.77
2022-08-24T00:57:59.600Z,5.60
2022-08-24T01:00:09.758Z,5.70
2022-08-24T01:02:16.134Z,6.20
2022-08-24T01:04:23.168Z,6.00
2022-08-24T01:06:26.178Z,6.37
2022-08-24T01:08:29.057Z,6.03
2022-08-24T01:10:41.067Z,5.90
2022-08-24T01:13:00.147Z,5.73
2022-08-24T01:15:06.020Z,6.53
2022-08-24T01:17:26.493Z,6.17
2022-08-24T01:19:42.321Z,5.77
2022-08-24T01:21:55.379Z,7.00
2022-08-24T01:24:01.816Z,7.20
2022-08-24T01:26:05.375Z,6.80
2022-08-24T01:28:14.298Z,7.07
2022-08-24T01:30:18.114Z,7.83
2022-08-24T01:32:27.842Z,7.90
2022-08-24T01:34:31.033Z,8.40
2022-08-24T01:36:37.016Z,8.60
2022-08-24T01:38:39.726Z,8.57
2022-08-24T01:40:47.579Z,8.27
2022-08-24T01:42:51.336Z,7.87
2022-08-24T01:44:54.200Z,8.63
2022-08-24T01:46:57.885Z,8.57
2022-08-24T01:49:01.052Z,8.23
2022-08-24T01:51:03.751Z,7.80
2022-08-24T01:53:06.801Z,8.20
2022-08-24T01:55:12.309Z,9.00
2022-08-24T01:57:18.146Z,9.60
2022-08-24T01:59:21.294Z,8.90
2022-08-24T02:01:25.012Z,10.23
2022-08-24T02:03:30.304Z,8.80
2022-08-24T02:05:33.453Z,8.83
2022-08-24T02:07:36.276Z,10.40
2022-08-24T02:09:39.158Z,11.03
2022-08-24T02:11:43.382Z,11.60
2022-08-24T02:13:47.430Z,10.73
2022-08-24T02:15:50.579Z,11.73
2022-08-24T02:17:53.297Z,11.10
2022-08-24T02:19:55.974Z,11.50
2022-08-24T02:22:00.446Z,11.10
2022-08-24T02:24:03.211Z,11.40
2022-08-24T02:26:06.732Z,11.80
2022-08-24T02:28:09.493Z,11.60
2022-08-24T02:30:15.214Z,11.60
2022-08-24T02:32:17.985Z,12.40
2022-08-24T02:34:21.633Z,11.53
2022-08-24T02:36:26.306Z,12.33
2022-08-24T02:38:29.509Z,11.37
2022-08-24T02:40:32.341Z,11.50
2022-08-24T02:42:35.332Z,10.93
2022-08-24T02:44:38.009Z,10.97
2022-08-24T02:46:42.925Z,12.50
2022-08-24T02:48:45.807Z,11.23
2022-08-24T02:50:59.202Z,11.27
2022-08-24T02:53:02.049Z,11.30
2022-08-24T02:55:06.072Z,12.40
2022-08-24T02:57:09.049Z,11.07
2022-08-24T02:59:12.248Z,10.40
2022-08-24T03:01:17.834Z,10.77
2022-08-24T03:03:28.087Z,10.63
2022-08-24T03:05:30.751Z,11.10
2022-08-24T03:07:33.525Z,10.10
2022-08-24T03:09:36.198Z,11.07
2022-08-24T03:11:38.940Z,11.25
2022-08-24T03:13:41.689Z,10.63
2022-08-24T03:15:46.400Z,10.90
2022-08-24T03:17:49.613Z,11.50
2022-08-24T03:19:53.777Z,11.30
2022-08-24T03:21:56.448Z,10.53
2022-08-24T03:23:59.100Z,11.10
2022-08-24T03:26:02.866Z,11.27
2022-08-24T03:28:11.084Z,10.80
2022-08-24T03:30:16.462Z,10.63
2022-08-24T03:32:20.027Z,11.40
2022-08-24T03:34:22.649Z,10.90
2022-08-24T03:36:26.681Z,11.57
2022-08-24T03:38:30.504Z,11.37
2022-08-24T03:40:34.136Z,11.77
2022-08-24T03:42:36.927Z,12.20
2022-08-24T03:44:41.189Z,11.13
2022-08-24T03:46:46.201Z,12.05
2022-08-24T03:48:49.682Z,11.52
2022-08-24T03:50:52.375Z,11.82
2022-08-24T03:52:56.375Z,10.73
2022-08-24T03:54:59.178Z,11.80
2022-08-24T03:57:01.886Z,12.00
2022-08-24T03:59:04.982Z,11.90
2022-08-24T04:01:07.807Z,10.60
2022-08-24T04:03:11.535Z,11.68
2022-08-24T04:05:14.343Z,11.60
2022-08-24T04:07:17.134Z,11.53
2022-08-24T04:09:21.215Z,11.73
2022-08-24T04:11:25.687Z,12.70
2022-08-24T04:13:31.834Z,11.87
2022-08-24T04:15:34.675Z,13.10
2022-08-24T04:17:38.395Z,11.80
2022-08-24T04:19:57.320Z,11.80
2022-08-24T04:22:00.617Z,10.70
2022-08-24T04:24:04.492Z,11.40
2022-08-24T04:26:08.615Z,11.40
2022-08-24T04:28:12.614Z,10.98
2022-08-24T04:30:15.520Z,11.30
2022-08-24T04:32:18.395Z,11.10
2022-08-24T04:34:21.106Z,11.90
2022-08-24T04:36:24.307Z,11.43
2022-08-24T04:38:27.074Z,11.25
2022-08-24T04:40:30.322Z,11.88
2022-08-24T04:42:34.906Z,11.45
2022-08-24T04:44:37.755Z,11.60
2022-08-24T04:46:40.578Z,12.30
2022-08-24T04:48:45.483Z,11.57
2022-08-24T04:50:48.152Z,11.77
2022-08-24T04:52:50.783Z,11.45
2022-08-24T04:54:53.499Z,12.37
2022-08-24T04:56:56.230Z,11.77
2022-08-24T04:59:00.228Z,11.17
2022-08-24T05:01:03.010Z,11.43
2022-08-24T05:03:05.795Z,10.20
2022-08-24T05:05:09.993Z,13.10
2022-08-24T05:07:12.848Z,11.70
2022-08-24T05:09:15.555Z,11.47
2022-08-24T05:11:21.186Z,10.77
2022-08-24T05:13:23.823Z,11.38
2022-08-24T05:15:27.815Z,11.20
2022-08-24T05:17:31.160Z,10.40
2022-08-24T05:19:34.162Z,11.97
2022-08-24T05:21:36.844Z,11.43
2022-08-24T05:23:43.815Z,12.13
2022-08-24T05:25:47.883Z,11.53
2022-08-24T05:27:51.548Z,13.40
2022-08-24T05:29:54.964Z,11.10
2022-08-24T05:31:59.382Z,11.80
2022-08-24T05:34:05.854Z,11.40
2022-08-24T05:36:17.050Z,12.17
2022-08-24T05:38:19.724Z,12.10
2022-08-24T05:40:23.574Z,13.47
2022-08-24T05:42:26.407Z,13.20
2022-08-24T05:44:31.517Z,11.30
2022-08-24T05:46:34.731Z,11.63
2022-08-24T05:48:38.824Z,11.60
2022-08-24T05:50:41.453Z,11.60
2022-08-24T05:52:44.183Z,11.60
2022-08-24T05:54:47.233Z,11.60
2022-08-24T05:56:50.532Z,11.37
2022-08-24T05:58:53.267Z,12.30
2022-08-24T06:00:55.948Z,12.30
2022-08-24T06:02:58.954Z,13.40
2022-08-24T06:05:03.076Z,12.90
2022-08-24T06:07:06.222Z,14.73
2022-08-24T06:09:11.492Z,12.70
2022-08-24T06:11:20.745Z,12.80
2022-08-24T06:13:24.236Z,12.53
2022-08-24T06:15:26.913Z,11.70
2022-08-24T06:17:29.768Z,11.50
2022-08-24T06:19:32.906Z,11.70
2022-08-24T06:21:37.891Z,11.87
2022-08-24T06:23:44.003Z,10.60
2022-08-24T06:26:04.232Z,10.60
2022-08-24T06:28:07.124Z,10.43
2022-08-24T06:30:11.539Z,11.07
2022-08-24T06:32:14.269Z,10.40
2022-08-24T06:34:19.269Z,9.90
2022-08-24T06:36:22.612Z,8.50
2022-08-24T06:38:27.015Z,9.30
2022-08-24T06:40:29.749Z,9.10
2022-08-24T06:42:34.173Z,8.87
2022-08-24T06:44:36.841Z,8.17
2022-08-24T06:46:39.562Z,8.40
2022-08-24T06:48:42.662Z,8.13
2022-08-24T06:50:45.464Z,8.10
2022-08-24T06:52:48.171Z,8.00
2022-08-24T06:54:53.209Z,8.13
2022-08-24T06:56:58.504Z,8.23
2022-08-24T06:59:03.270Z,8.30
2022-08-24T07:01:10.743Z,8.37
2022-08-24T07:03:13.908Z,9.00
2022-08-24T07:05:16.793Z,8.50
2022-08-24T07:07:19.527Z,7.97
2022-08-24T07:09:24.732Z,6.97
2022-08-24T07:11:28.805Z,7.83
2022-08-24T07:13:31.892Z,7.67
2022-08-24T07:15:35.544Z,7.20
2022-08-24T07:17:38.319Z,7.67
2022-08-24T07:19:41.305Z,7.80
2022-08-24T07:21:44.118Z,7.67
2022-08-24T07:23:47.216Z,8.10
2022-08-24T07:25:54.185Z,8.40
2022-08-24T07:28:00.678Z,7.77
2022-08-24T07:30:25.969Z,7.63
2022-08-24T07:32:26.174Z,8.00
2022-08-24T07:34:29.244Z,7.60
2022-08-24T07:36:32.096Z,7.40
2022-08-24T07:38:35.000Z,8.03
2022-08-24T07:41:01.679Z,7.60
2022-08-24T07:43:02.173Z,7.10
2022-08-24T07:45:05.649Z,6.87
2022-08-24T07:47:34.191Z,6.77
2022-08-24T07:49:37.155Z,6.70
2022-08-24T07:51:44.792Z,6.70
2022-08-24T07:53:53.934Z,6.50
2022-08-24T07:55:57.900Z,6.87
2022-08-24T07:58:02.237Z,6.50
2022-08-24T08:00:06.896Z,6.47
2022-08-24T08:02:11.149Z,6.10
2022-08-24T08:04:15.329Z,6.07
2022-08-24T08:06:19.069Z,5.40
2022-08-24T08:08:21.781Z,4.97
2022-08-24T08:10:24.613Z,4.97
2022-08-24T08:12:27.444Z,4.37
2022-08-24T08:14:31.610Z,4.13
2022-08-24T08:16:34.385Z,3.83
2022-08-24T08:18:37.326Z,4.20
2022-08-24T08:20:42.418Z,4.07
2022-08-24T08:23:02.778Z,4.00
2022-08-24T08:25:08.087Z,4.27
2022-08-24T08:27:10.925Z,4.20
2022-08-24T08:29:14.825Z,4.03
2022-08-24T08:31:18.990Z,4.60
2022-08-24T08:33:21.802Z,4.10
2022-08-24T08:35:26.234Z,4.20
2022-08-24T08:37:29.188Z,4.20
2022-08-24T08:39:32.276Z,4.00
2022-08-24T08:42:13.156Z,3.87
2022-08-24T08:44:25.749Z,4.10
2022-08-24T08:46:42.102Z,3.63
2022-08-24T08:49:01.230Z,3.70
2022-08-24T08:51:52.565Z,3.90
2022-08-24T08:54:22.967Z,4.03
2022-08-24T08:56:33.697Z,3.67
2022-08-24T08:58:57.463Z,3.83
2022-08-24T09:01:10.565Z,4.00
2022-08-24T09:03:30.880Z,3.67
2022-08-24T09:06:21.002Z,3.87
2022-08-24T09:08:34.325Z,3.63
2022-08-24T09:10:51.822Z,3.83
2022-08-24T09:13:09.996Z,3.50
2022-08-24T09:15:31.969Z,3.57
2022-08-24T09:17:51.973Z,4.10
2022-08-24T09:20:24.581Z,3.50
2022-08-24T09:22:27.683Z,3.70
2022-08-24T09:24:56.907Z,3.87
2022-08-24T09:27:12.598Z,3.33
2022-08-24T09:29:18.810Z,3.17
2022-08-24T09:33:41.434Z,3.73
2022-08-24T09:36:08.320Z,3.60
2022-08-24T09:38:23.069Z,3.57
2022-08-24T09:40:37.926Z,3.10
2022-08-24T09:43:05.417Z,3.30
2022-08-24T09:45:28.456Z,3.33
2022-08-24T09:48:01.532Z,3.57
2022-08-24T09:50:26.242Z,3.87
2022-08-24T09:52:52.650Z,3.70
2022-08-24T09:55:30.409Z,3.90
2022-08-24T09:58:00.642Z,3.20
2022-08-24T10:00:13.550Z,3.10
2022-08-24T10:02:34.818Z,3.43
2022-08-24T10:04:44.152Z,3.33
2022-08-24T10:06:58.134Z,3.33
2022-08-24T10:09:15.352Z,3.23
2022-08-24T10:11:31.667Z,3.30
2022-08-24T10:13:51.811Z,3.20
2022-08-24T10:16:21.540Z,3.20
2022-08-24T10:18:43.934Z,3.80
2022-08-24T10:21:03.562Z,3.43
2022-08-24T10:23:28.506Z,3.30
2022-08-24T10:25:40.026Z,3.07
2022-08-24T10:27:56.598Z,3.10
2022-08-24T10:30:23.792Z,3.20
2022-08-24T10:32:44.954Z,3.37
2022-08-24T10:35:02.379Z,3.53
2022-08-24T10:37:24.245Z,3.03
2022-08-24T10:40:02.906Z,3.50
2022-08-24T10:43:05.996Z,3.33
2022-08-24T10:45:19.034Z,3.60
2022-08-24T10:47:26.807Z,3.23
2022-08-24T10:50:04.243Z,3.73
2022-08-24T10:52:38.021Z,3.30
2022-08-24T10:54:41.296Z,3.53
2022-08-24T10:56:54.292Z,3.50
2022-08-24T10:59:06.236Z,3.50
2022-08-24T11:01:29.851Z,3.63
2022-08-24T11:03:33.305Z,3.57
2022-08-24T11:05:40.966Z,3.50
2022-08-24T11:07:58.502Z,3.70
2022-08-24T11:10:03.353Z,3.50
2022-08-24T11:12:19.664Z,3.03
2022-08-24T11:14:29.128Z,3.30
2022-08-24T11:16:37.073Z,3.00
2022-08-24T11:18:49.894Z,3.17
2022-08-24T11:20:55.974Z,3.60
2022-08-24T11:23:03.260Z,3.50
2022-08-24T11:25:14.473Z,3.60
2022-08-24T11:27:27.533Z,3.07
2022-08-24T11:29:52.033Z,2.90
2022-08-24T11:31:56.171Z,3.10
2022-08-24T11:34:03.630Z,2.80
2022-08-24T11:36:21.228Z,2.90
2022-08-24T11:38:27.350Z,2.90
2022-08-24T11:40:35.204Z,2.90
2022-08-24T11:42:49.118Z,3.20
2022-08-24T11:44:59.300Z,2.93
2022-08-24T11:47:19.900Z,2.60
2022-08-24T11:49:31.960Z,2.47
2022-08-24T11:51:46.033Z,3.00
2022-08-24T11:54:01.302Z,3.20
2022-08-24T11:56:18.705Z,2.60
2022-08-24T11:58:38.644Z,2.70
2022-08-24T12:00:48.554Z,2.60
2022-08-24T12:03:01.868Z,2.87
2022-08-24T12:05:09.395Z,2.80
2022-08-24T12:07:24.907Z,2.83
2022-08-24T12:09:44.573Z,2.77
2022-08-24T12:11:54.885Z,3.03
2022-08-24T12:14:06.608Z,3.20
2022-08-24T12:16:18.215Z,3.10
2022-08-24T12:18:31.214Z,2.80
2022-08-24T12:20:38.380Z,3.00
2022-08-24T12:22:43.453Z,2.73
2022-08-24T12:24:49.485Z,2.83
2022-08-24T12:26:56.323Z,2.90
2022-08-24T12:29:03.747Z,2.83
2022-08-24T12:31:13.074Z,2.77
2022-08-24T12:33:29.956Z,2.50
2022-08-24T12:35:38.858Z,2.80
2022-08-24T12:37:46.357Z,2.73
2022-08-24T12:39:54.912Z,2.90
2022-08-24T12:42:06.619Z,2.60
2022-08-24T12:44:15.993Z,2.90
2022-08-24T12:46:23.722Z,2.73
2022-08-24T12:48:33.167Z,2.87
2022-08-24T12:50:46.504Z,3.00
2022-08-24T12:53:21.846Z,2.77
2022-08-24T12:55:52.625Z,2.80
2022-08-24T12:58:31.043Z,2.83
2022-08-24T13:00:37.217Z,2.53
2022-08-24T13:02:48.447Z,2.50
2022-08-24T13:04:59.098Z,2.60
2022-08-24T13:07:08.586Z,2.70
2022-08-24T13:09:18.058Z,2.40
2022-08-24T13:11:30.632Z,2.40
2022-08-24T13:13:48.071Z,2.67
2022-08-24T13:15:54.807Z,2.10
2022-08-24T13:18:02.958Z,2.73
2022-08-24T13:20:23.499Z,2.60
2022-08-24T13:22:48.300Z,2.60
2022-08-24T13:25:01.861Z,2.83
2022-08-24T13:27:43.456Z,2.60
2022-08-24T13:29:53.207Z,2.40
2022-08-24T13:31:59.605Z,2.37
2022-08-24T13:34:37.923Z,2.57
2022-08-24T13:36:49.957Z,2.80
2022-08-24T13:39:09.982Z,2.70
2022-08-24T13:41:22.401Z,2.40
2022-08-24T13:43:32.108Z,2.57
2022-08-24T13:45:42.646Z,2.40
2022-08-24T13:47:56.817Z,2.63
2022-08-24T13:50:09.236Z,2.93
2022-08-24T13:52:24.924Z,2.70
2022-08-24T13:54:41.828Z,2.50
2022-08-24T13:57:02.388Z,2.70
2022-08-24T13:59:12.503Z,2.93
2022-08-24T14:01:30.586Z,2.70
2022-08-24T14:03:52.297Z,2.60
2022-08-24T14:06:00.004Z,2.37
2022-08-24T14:08:23.126Z,2.70
2022-08-24T14:10:44.364Z,3.07
2022-08-24T14:12:59.983Z,2.97
2022-08-24T14:15:14.503Z,2.60
2022-08-24T14:17:43.792Z,2.70
2022-08-24T14:20:00.817Z,2.77
2022-08-24T14:22:16.065Z,2.40
2022-08-24T14:24:28.150Z,2.53
2022-08-24T14:27:00.897Z,2.60
2022-08-24T14:29:35.378Z,2.70
2022-08-24T14:31:38.650Z,2.57
2022-08-24T14:33:50.674Z,3.27
2022-08-24T14:36:12.539Z,2.90
2022-08-24T14:38:39.530Z,2.67
2022-08-24T14:40:59.474Z,2.80
2022-08-24T14:43:23.555Z,2.90
2022-08-24T14:45:43.941Z,2.40
2022-08-24T14:48:00.064Z,2.60
2022-08-24T14:50:13.168Z,2.90
2022-08-24T14:52:36.639Z,2.80
2022-08-24T14:54:57.552Z,2.90
2022-08-24T14:57:14.750Z,3.10
2022-08-24T14:59:31.464Z,3.10
2022-08-24T15:01:43.255Z,2.93
2022-08-24T15:04:00.605Z,3.00
2022-08-24T15:06:27.382Z,3.10
2022-08-24T15:08:33.203Z,2.77
2022-08-24T15:10:39.501Z,3.13
2022-08-24T15:12:49.852Z,3.80
2022-08-24T15:14:56.076Z,3.20
2022-08-24T15:17:06.010Z,3.30
2022-08-24T15:19:16.872Z,3.13
2022-08-24T15:21:37.165Z,3.37
2022-08-24T15:23:53.898Z,3.37
2022-08-24T15:26:04.688Z,3.60
2022-08-24T15:28:13.928Z,3.03
2022-08-24T15:30:27.131Z,3.40
2022-08-24T15:32:44.348Z,3.03
2022-08-24T15:34:49.779Z,3.13
2022-08-24T15:36:59.950Z,3.43
2022-08-24T15:39:04.744Z,3.10
2022-08-24T15:41:11.975Z,3.30
2022-08-24T15:43:16.270Z,3.30
2022-08-24T15:45:20.963Z,3.77
2022-08-24T15:47:29.397Z,3.77
2022-08-24T15:49:37.892Z,3.03
2022-08-24T15:51:55.616Z,3.10
2022-08-24T15:53:58.594Z,3.33
2022-08-24T15:56:27.118Z,3.33
2022-08-24T15:58:38.547Z,3.57
2022-08-24T16:00:58.980Z,3.77
2022-08-24T16:03:21.467Z,3.30
2022-08-24T16:05:38.834Z,3.30
2022-08-24T16:08:06.962Z,3.37
2022-08-24T16:10:13.020Z,3.37
2022-08-24T16:12:23.418Z,3.20
2022-08-24T16:14:30.443Z,3.20
2022-08-24T16:16:37.871Z,3.17
2022-08-24T16:18:50.765Z,3.73
2022-08-24T16:20:53.676Z,3.40
2022-08-24T16:23:00.778Z,3.23
2022-08-24T16:25:19.242Z,3.30
2022-08-24T16:27:22.006Z,3.00
2022-08-24T16:29:50.964Z,3.23
2022-08-24T16:32:09.726Z,3.20
2022-08-24T16:34:21.943Z,2.97
2022-08-24T16:36:24.696Z,3.17
2022-08-24T16:38:28.022Z,3.00
2022-08-24T16:40:33.588Z,3.20
2022-08-24T16:42:37.636Z,2.90
2022-08-24T16:44:43.874Z,3.00
2022-08-24T16:46:48.283Z,3.30
2022-08-24T16:48:53.970Z,3.30
2022-08-24T16:50:57.126Z,3.37
2022-08-24T16:52:59.940Z,2.93
2022-08-24T16:55:02.778Z,3.27
2022-08-24T16:57:12.533Z,3.10
2022-08-24T16:59:21.836Z,3.50
2022-08-24T17:01:24.866Z,3.30
2022-08-24T17:03:29.597Z,3.37
2022-08-24T17:05:33.103Z,2.90
2022-08-24T17:07:36.185Z,3.20
2022-08-24T17:09:41.496Z,3.40
2022-08-24T17:11:44.379Z,3.30
2022-08-24T17:13:50.177Z,3.03
2022-08-24T17:15:53.973Z,3.43
2022-08-24T17:18:01.337Z,3.13
2022-08-24T17:20:09.502Z,3.53
2022-08-24T17:22:16.292Z,3.50
2022-08-24T17:24:21.880Z,3.13
2022-08-24T17:26:24.905Z,3.13
2022-08-24T17:28:27.611Z,3.30
2022-08-24T17:30:30.958Z,2.70
2022-08-24T17:32:34.999Z,2.87
2022-08-24T17:34:37.797Z,3.00
2022-08-24T17:36:44.143Z,3.20
2022-08-24T17:38:55.120Z,3.30
2022-08-24T17:40:58.552Z,3.00
2022-08-24T17:43:01.328Z,3.00
2022-08-24T17:45:04.249Z,2.87
2022-08-24T17:47:08.162Z,3.30
2022-08-24T17:49:12.983Z,3.27
2022-08-24T17:51:16.415Z,3.03
2022-08-24T17:53:20.603Z,3.17
2022-08-24T17:55:24.961Z,2.90
2022-08-24T17:57:28.653Z,3.10
2022-08-24T17:59:34.708Z,3.20
2022-08-24T18:01:38.417Z,3.40
2022-08-24T18:03:41.337Z,3.27
2022-08-24T18:05:48.368Z,3.70
2022-08-24T18:07:54.743Z,3.30
2022-08-24T18:10:00.741Z,3.30
2022-08-24T18:12:05.289Z,3.43
2022-08-24T18:14:08.204Z,3.50
2022-08-24T18:16:17.325Z,3.90
2022-08-24T18:18:20.512Z,3.77
2022-08-24T18:20:28.060Z,3.47
2022-08-24T18:22:30.906Z,3.50
2022-08-24T18:24:34.359Z,3.10
2022-08-24T18:26:40.795Z,3.37
2022-08-24T18:28:50.787Z,3.70
2022-08-24T18:30:54.271Z,3.67
2022-08-24T18:32:57.806Z,3.70
2022-08-24T18:35:01.304Z,3.57
2022-08-24T18:37:04.176Z,3.77
2022-08-24T18:39:07.369Z,4.10
2022-08-24T18:41:11.289Z,3.73
2022-08-24T18:43:19.371Z,3.90
2022-08-24T18:45:22.678Z,3.43
2022-08-24T18:47:25.478Z,3.80
2022-08-24T18:49:28.436Z,3.67
2022-08-24T18:51:35.817Z,3.53
2022-08-24T18:53:38.647Z,4.00
2022-08-24T18:55:44.149Z,3.90
2022-08-24T18:57:46.842Z,5.63
2022-08-24T18:59:50.957Z,7.60
2022-08-24T19:02:11.751Z,4.97
2022-08-24T19:04:14.608Z,3.67
2022-08-24T19:06:17.396Z,4.10
2022-08-24T19:08:20.306Z,4.07
2022-08-24T19:10:25.236Z,3.90
2022-08-24T19:12:31.457Z,3.53
2022-08-24T19:14:34.904Z,4.10
2022-08-24T19:16:40.436Z,3.70
2022-08-24T19:18:43.283Z,4.07
2022-08-24T19:20:50.042Z,4.00
2022-08-24T19:22:52.852Z,3.80
2022-08-24T19:24:56.140Z,3.87
2022-08-24T19:27:01.268Z,3.90
2022-08-24T19:29:05.561Z,4.00
2022-08-24T19:31:11.886Z,3.70
2022-08-24T19:33:20.760Z,4.43
2022-08-24T19:35:23.769Z,4.17
2022-08-24T19:37:27.039Z,3.80
2022-08-24T19:39:31.727Z,4.40
2022-08-24T19:41:36.929Z,4.20
2022-08-24T19:43:55.799Z,3.50
2022-08-24T19:46:07.601Z,4.17
2022-08-24T19:48:10.801Z,3.90
2022-08-24T19:50:21.167Z,4.03
2022-08-24T19:52:33.556Z,3.90
2022-08-24T19:54:38.985Z,4.20
2022-08-24T19:56:41.763Z,4.80
2022-08-24T19:58:47.836Z,4.50
2022-08-24T20:03:29.409Z,4.37
2022-08-24T20:05:33.800Z,4.17
2022-08-24T20:07:37.542Z,4.13
2022-08-24T20:09:40.203Z,4.03
2022-08-24T20:11:43.369Z,4.23
2022-08-24T20:13:46.201Z,4.20
2022-08-24T20:15:49.428Z,4.10
2022-08-24T20:17:53.196Z,3.80
2022-08-24T20:19:56.010Z,4.07
2022-08-24T20:22:00.177Z,3.83
2022-08-24T20:24:04.642Z,4.20
2022-08-24T20:26:09.112Z,3.87
2022-08-24T20:28:28.903Z,4.20
2022-08-24T20:30:32.574Z,4.20
2022-08-24T20:32:35.486Z,4.43
2022-08-24T20:34:38.322Z,4.80
2022-08-24T20:36:44.723Z,4.20
2022-08-24T20:38:49.111Z,3.83
2022-08-24T20:40:52.942Z,4.23
2022-08-24T20:42:55.647Z,4.30
2022-08-24T20:44:59.638Z,4.60
2022-08-24T20:47:04.197Z,4.23
2022-08-24T20:49:07.971Z,4.20
2022-08-24T20:51:17.254Z,4.40
2022-08-24T20:53:20.160Z,4.47
2022-08-24T20:55:25.239Z,3.97
2022-08-24T20:57:27.960Z,3.90
2022-08-24T20:59:30.689Z,3.97
2022-08-24T21:01:34.679Z,4.10
2022-08-24T21:03:37.757Z,3.87
2022-08-24T21:05:40.496Z,4.17
2022-08-24T21:07:49.503Z,3.47
2022-08-24T21:09:52.182Z,3.83
2022-08-24T21:11:56.199Z,4.20
2022-08-24T21:13:58.885Z,4.27
2022-08-24T21:16:01.589Z,4.17
2022-08-24T21:18:04.843Z,3.67
2022-08-24T21:20:08.577Z,4.23
2022-08-24T21:22:11.816Z,3.97
2022-08-24T21:24:16.741Z,3.77
2022-08-24T21:26:24.474Z,3.80
2022-08-24T21:28:28.649Z,3.70
2022-08-24T21:30:32.017Z,4.40
2022-08-24T21:32:55.373Z,4.03
2022-08-24T21:34:58.042Z,4.07
2022-08-24T21:37:01.167Z,4.10
2022-08-24T21:39:10.156Z,4.17
2022-08-24T21:41:13.580Z,3.90
2022-08-24T21:43:19.823Z,4.20
2022-08-24T21:45:24.331Z,4.60
2022-08-24T21:47:27.009Z,4.37
2022-08-24T21:49:30.298Z,4.33
2022-08-24T21:51:33.317Z,4.27
2022-08-24T21:53:37.039Z,4.30
2022-08-24T21:55:41.268Z,4.33
2022-08-24T21:57:44.043Z,4.10
2022-08-24T21:59:46.849Z,4.00
2022-08-24T22:01:53.697Z,3.87
2022-08-24T22:03:58.202Z,4.00
2022-08-24T22:06:00.919Z,4.87
2022-08-24T22:08:04.267Z,4.70
2022-08-24T22:10:08.428Z,4.00
2022-08-24T22:12:11.067Z,4.63
2022-08-24T22:14:15.846Z,4.67
2022-08-24T22:16:19.139Z,4.20
2022-08-24T22:18:23.281Z,4.20
2022-08-24T22:20:26.029Z,4.23
2022-08-24T22:22:28.964Z,4.40
2022-08-24T22:24:31.820Z,4.80
2022-08-24T22:26:34.855Z,4.70
2022-08-24T22:28:39.848Z,3.87
2022-08-24T22:30:44.475Z,4.37
2022-08-24T22:32:47.480Z,4.53
2022-08-24T22:34:51.605Z,4.50
2022-08-24T22:36:56.903Z,4.70
2022-08-24T22:39:00.847Z,4.70
2022-08-24T22:41:03.681Z,4.67
2022-08-24T22:43:06.467Z,4.43
2022-08-24T22:45:10.755Z,4.27
2022-08-24T22:47:15.167Z,4.93
2022-08-24T22:49:19.500Z,4.50
2022-08-24T22:51:23.870Z,5.40
2022-08-24T22:53:26.726Z,4.60
2022-08-24T22:55:32.401Z,4.07
2022-08-24T22:57:35.063Z,4.73
2022-08-24T22:59:40.743Z,4.83
2022-08-24T23:01:45.738Z,4.47
2022-08-24T23:03:49.838Z,4.53
2022-08-24T23:05:52.721Z,5.07
2022-08-24T23:07:56.854Z,4.80
2022-08-24T23:09:59.548Z,4.70
2022-08-24T23:12:02.293Z,4.20
2022-08-24T23:14:07.304Z,4.87
2022-08-24T23:16:12.482Z,4.40
2022-08-24T23:18:29.088Z,4.70
2022-08-24T23:20:32.009Z,4.30
2022-08-24T23:22:38.859Z,4.53
2022-08-24T23:24:43.857Z,4.70
2022-08-24T23:26:46.653Z,4.40
2022-08-24T23:28:50.339Z,4.33
2022-08-24T23:30:53.236Z,5.07
2022-08-24T23:32:55.965Z,4.50
2022-08-24T23:34:58.978Z,4.50
2022-08-24T23:37:02.640Z,4.40
2022-08-24T23:39:07.857Z,4.60
2022-08-24T23:41:14.141Z,4.23
2022-08-24T23:43:16.845Z,4.23
2022-08-24T23:45:19.615Z,4.57
2022-08-24T23:47:35.668Z,4.67
2022-08-24T23:49:40.060Z,4.50
2022-08-24T23:51:43.622Z,4.43
2022-08-24T23:53:48.118Z,4.60
2022-08-24T23:55:50.906Z,4.57
2022-08-24T23:57:55.599Z,4.30
